Time;durP1;ratioP1;P1;durP2;ratioP2;P2;SDS_P1;SDS_P2;PMS_P1;PMS_P2;Temp;Humidity;BMP_temperature;BMP_pressure;BME280_temperature;BME280_humidity;BME280_pressure;Samples;Min_cycle;Max_cycle;Signal;HPM_P1;HPM_P2
2022/06/09 00:00:10;;;;;;;2.00;1.90;;;18.70;77.10;;;;;;604904;238;26798;-65
2022/06/09 00:02:37;;;;;;;2.47;2.28;;;18.80;77.10;;;;;;604856;238;26599;-65
2022/06/09 00:05:05;;;;;;;2.47;1.90;;;18.80;77.40;;;;;;602880;237;26689;-65
2022/06/09 00:07:32;;;;;;;2.17;2.03;;;18.80;76.70;;;;;;590567;242;26830;-65
2022/06/09 00:10:01;;;;;;;2.75;2.53;;;18.80;76.50;;;;;;586402;244;26679;-65
2022/06/09 00:12:30;;;;;;;2.62;2.42;;;18.80;76.20;;;;;;596029;239;26657;-65
2022/06/09 00:14:57;;;;;;;2.08;1.98;;;18.90;75.90;;;;;;593431;242;26621;-65
2022/06/09 00:17:24;;;;;;;2.28;2.15;;;18.90;75.90;;;;;;593451;242;26600;-65
2022/06/09 00:19:51;;;;;;;2.37;2.08;;;18.90;75.30;;;;;;590667;243;26611;-65
2022/06/09 00:22:18;;;;;;;2.22;2.10;;;18.90;75.80;;;;;;581900;244;26954;-65
2022/06/09 00:24:45;;;;;;;2.72;2.28;;;18.90;75.20;;;;;;581900;244;26692;-65
2022/06/09 00:27:13;;;;;;;3.42;1.95;;;18.90;75.80;;;;;;583356;246;27135;-65
2022/06/09 00:29:40;;;;;;;2.28;2.00;;;19.00;75.90;;;;;;583485;246;26684;-65
2022/06/09 00:32:08;;;;;;;2.30;2.10;;;19.00;75.70;;;;;;583304;246;26969;-65
2022/06/09 00:34:35;;;;;;;3.10;1.98;;;18.90;75.50;;;;;;583242;246;26660;-65
2022/06/09 00:37:03;;;;;;;2.78;2.08;;;18.90;76.30;;;;;;587026;244;26720;-65
2022/06/09 00:39:31;;;;;;;1.85;1.75;;;18.90;76.30;;;;;;610456;236;26577;-65
2022/06/09 00:41:58;;;;;;;3.33;2.00;;;18.90;76.30;;;;;;606934;235;26601;-65
2022/06/09 00:44:27;;;;;;;2.70;2.47;;;18.90;75.10;;;;;;604964;232;26607;-65
2022/06/09 00:46:59;;;;;;;3.50;1.83;;;19.00;74.40;;;;;;609985;236;26642;-65
2022/06/09 00:49:26;;;;;;;2.17;2.00;;;18.90;74.30;;;;;;610324;236;26597;-65
2022/06/09 00:51:54;;;;;;;1.92;1.83;;;19.00;74.40;;;;;;610157;236;26824;-65
2022/06/09 00:54:23;;;;;;;1.98;1.75;;;19.00;74.50;;;;;;606723;236;26617;-65
2022/06/09 00:56:56;;;;;;;2.20;2.00;;;18.90;74.60;;;;;;601728;239;26581;-65
2022/06/09 00:59:23;;;;;;;2.08;1.77;;;18.90;75.50;;;;;;601181;238;27164;-65
2022/06/09 01:01:50;;;;;;;2.05;1.90;;;18.90;75.20;;;;;;601515;237;26625;-65
2022/06/09 01:04:17;;;;;;;2.05;1.95;;;18.90;75.30;;;;;;601702;236;26638;-65
2022/06/09 01:06:47;;;;;;;2.00;1.90;;;18.90;75.50;;;;;;601515;237;26650;-65
2022/06/09 01:09:14;;;;;;;2.37;2.08;;;18.90;75.50;;;;;;601497;237;26878;-65
2022/06/09 01:11:42;;;;;;;2.42;2.20;;;18.70;75.80;;;;;;603307;236;26637;-65
2022/06/09 01:14:13;;;;;;;2.20;2.00;;;18.70;75.90;;;;;;604457;238;26579;-65
2022/06/09 01:16:56;;;;;;;2.10;1.98;;;18.70;76.00;;;;;;604555;237;26582;-65
2022/06/09 01:19:30;;;;;;;2.15;2.00;;;18.60;76.10;;;;;;594991;238;26712;-65
2022/06/09 01:22:14;;;;;;;1.90;1.80;;;18.50;76.20;;;;;;601853;238;26640;-65
2022/06/09 01:24:57;;;;;;;1.95;1.80;;;18.50;76.20;;;;;;601759;236;26869;-65
2022/06/09 01:27:40;;;;;;;2.00;1.90;;;18.50;76.60;;;;;;604269;236;26661;-65
2022/06/09 01:30:09;;;;;;;1.70;1.60;;;18.40;76.90;;;;;;601492;237;26644;-65
2022/06/09 01:32:37;;;;;;;1.83;1.73;;;18.40;76.90;;;;;;600928;239;27429;-65
2022/06/09 01:35:06;;;;;;;1.90;1.80;;;18.30;76.90;;;;;;602666;237;26910;-65
2022/06/09 01:37:35;;;;;;;1.90;1.80;;;18.30;76.90;;;;;;602611;234;26609;-65
2022/06/09 01:40:02;;;;;;;2.10;2.00;;;18.20;77.10;;;;;;602455;237;26849;-65
2022/06/09 01:42:31;;;;;;;1.70;1.60;;;18.20;77.30;;;;;;602279;238;26650;-64
2022/06/09 01:45:00;;;;;;;4.30;1.85;;;18.20;77.20;;;;;;607785;232;26887;-64
2022/06/09 01:47:28;;;;;;;2.17;1.95;;;18.10;77.10;;;;;;610206;236;26584;-65
2022/06/09 01:49:56;;;;;;;1.87;1.75;;;18.10;76.50;;;;;;606281;236;26655;-65
2022/06/09 01:52:23;;;;;;;1.95;1.85;;;18.10;76.50;;;;;;605883;236;26644;-65
2022/06/09 01:54:51;;;;;;;3.25;1.98;;;18.10;76.50;;;;;;610081;235;27001;-65
2022/06/09 01:57:18;;;;;;;1.70;1.60;;;18.10;76.60;;;;;;603327;235;26582;-65
2022/06/09 01:59:46;;;;;;;1.95;1.83;;;18.00;76.60;;;;;;602238;237;26797;-65
2022/06/09 02:02:16;;;;;;;1.67;1.48;;;18.00;76.60;;;;;;602228;236;26565;-65
2022/06/09 02:04:59;;;;;;;1.80;1.70;;;18.00;76.60;;;;;;604097;234;26574;-65
2022/06/09 02:07:26;;;;;;;1.83;1.65;;;17.90;77.10;;;;;;602612;236;26830;-65
2022/06/09 02:09:54;;;;;;;1.83;1.73;;;17.90;76.60;;;;;;602044;237;26548;-65
2022/06/09 02:12:22;;;;;;;1.48;1.48;;;17.90;76.60;;;;;;601883;237;26594;-65
2022/06/09 02:14:49;;;;;;;1.35;1.35;;;17.90;76.60;;;;;;601971;236;26618;-65
2022/06/09 02:17:17;;;;;;;1.50;1.40;;;17.90;76.70;;;;;;601895;237;26604;-65
2022/06/09 02:19:45;;;;;;;1.70;1.60;;;17.80;76.60;;;;;;601802;237;26635;-65
2022/06/09 02:22:12;;;;;;;1.50;1.40;;;17.80;76.60;;;;;;601477;237;26640;-65
2022/06/09 02:24:39;;;;;;;1.62;1.52;;;17.80;77.10;;;;;;605900;235;26647;-65
2022/06/09 02:27:06;;;;;;;1.85;1.75;;;17.80;76.40;;;;;;604565;237;26634;-65
2022/06/09 02:29:33;;;;;;;1.80;1.70;;;17.70;76.60;;;;;;604554;238;26582;-65
2022/06/09 02:32:01;;;;;;;1.83;1.65;;;17.80;75.70;;;;;;604601;237;26837;-65
2022/06/09 02:34:28;;;;;;;3.50;1.80;;;17.80;75.60;;;;;;601901;237;26665;-65
2022/06/09 02:36:56;;;;;;;1.80;1.70;;;17.70;74.90;;;;;;601585;237;26811;-65
2022/06/09 02:39:23;;;;;;;1.52;1.42;;;17.70;74.90;;;;;;601576;236;26856;-65
2022/06/09 02:41:50;;;;;;;1.73;1.55;;;17.70;74.90;;;;;;601543;237;26635;-65
2022/06/09 02:44:17;;;;;;;1.30;1.30;;;17.60;74.90;;;;;;603909;234;26800;-65
2022/06/09 02:46:46;;;;;;;1.70;1.60;;;17.50;75.30;;;;;;605999;235;26597;-65
2022/06/09 02:49:14;;;;;;;1.33;1.33;;;17.50;75.60;;;;;;605794;237;26630;-65
2022/06/09 02:51:41;;;;;;;1.50;1.40;;;17.40;75.60;;;;;;605383;237;26628;-65
2022/06/09 02:54:10;;;;;;;1.55;1.45;;;17.40;75.60;;;;;;608883;235;26642;-65
2022/06/09 02:56:37;;;;;;;1.48;1.37;;;17.30;75.80;;;;;;608163;235;26582;-66
2022/06/09 02:59:04;;;;;;;1.67;1.58;;;17.30;76.10;;;;;;602069;237;26822;-65
2022/06/09 03:01:31;;;;;;;1.42;1.40;;;17.20;76.20;;;;;;602040;232;26568;-65
2022/06/09 03:03:58;;;;;;;1.37;1.37;;;17.20;76.60;;;;;;601961;237;26810;-65
2022/06/09 03:06:25;;;;;;;1.50;1.40;;;17.10;76.90;;;;;;602036;236;26637;-65
2022/06/09 03:08:53;;;;;;;1.40;1.30;;;17.10;77.10;;;;;;601790;237;26915;-65
2022/06/09 03:11:20;;;;;;;1.30;1.30;;;17.00;77.30;;;;;;601772;237;26586;-65
2022/06/09 03:13:47;;;;;;;2.03;1.52;;;17.00;77.80;;;;;;601795;238;26827;-66
2022/06/09 03:16:14;;;;;;;1.52;1.42;;;17.00;78.20;;;;;;602056;236;26613;-66
2022/06/09 03:18:42;;;;;;;1.35;1.35;;;16.90;78.40;;;;;;602356;236;27071;-65
2022/06/09 03:21:09;;;;;;;1.48;1.37;;;16.80;79.00;;;;;;601769;236;26590;-66
2022/06/09 03:23:37;;;;;;;1.55;1.25;;;16.80;79.10;;;;;;603025;235;26649;-66
2022/06/09 03:26:06;;;;;;;1.55;1.45;;;16.80;79.50;;;;;;602532;234;26656;-66
2022/06/09 03:28:33;;;;;;;2.62;1.50;;;16.70;79.60;;;;;;601916;238;26612;-65
2022/06/09 03:31:00;;;;;;;1.60;1.50;;;16.70;79.60;;;;;;604676;237;26798;-67
2022/06/09 03:33:28;;;;;;;1.40;1.30;;;16.70;79.90;;;;;;604950;237;26560;-65
2022/06/09 03:35:55;;;;;;;1.50;1.40;;;16.70;80.00;;;;;;604960;234;26840;-65
2022/06/09 03:38:23;;;;;;;1.50;1.40;;;16.70;80.10;;;;;;607103;236;26610;-65
2022/06/09 03:40:51;;;;;;;1.58;1.40;;;16.70;80.10;;;;;;610244;236;26555;-65
2022/06/09 03:43:18;;;;;;;1.40;1.30;;;16.70;80.10;;;;;;610254;235;26599;-65
2022/06/09 03:45:45;;;;;;;1.80;1.70;;;16.70;80.10;;;;;;609963;235;26596;-65
2022/06/09 03:48:13;;;;;;;1.33;1.30;;;16.70;80.00;;;;;;609867;235;26573;-65
2022/06/09 03:50:40;;;;;;;1.58;1.48;;;16.70;80.00;;;;;;609902;236;26581;-65
2022/06/09 03:53:07;;;;;;;1.10;1.10;;;16.70;79.90;;;;;;609385;235;26672;-65
2022/06/09 03:55:35;;;;;;;1.50;1.40;;;16.70;79.90;;;;;;609859;236;26968;-65
2022/06/09 03:58:02;;;;;;;1.45;1.40;;;16.70;79.90;;;;;;611083;233;26644;-65
2022/06/09 04:00:29;;;;;;;1.40;1.30;;;16.70;79.80;;;;;;611195;235;26823;-65
2022/06/09 04:02:56;;;;;;;2.17;1.12;;;16.70;79.80;;;;;;606355;235;26637;-65
2022/06/09 04:05:23;;;;;;;1.30;1.20;;;16.70;79.70;;;;;;603368;235;26889;-65
2022/06/09 04:07:51;;;;;;;1.30;1.20;;;16.70;79.70;;;;;;602325;233;26637;-65
2022/06/09 04:10:19;;;;;;;1.90;1.45;;;16.80;79.70;;;;;;602157;238;26984;-65
2022/06/09 04:12:46;;;;;;;1.27;1.27;;;16.80;79.60;;;;;;603869;236;26588;-65
2022/06/09 04:15:14;;;;;;;1.20;1.20;;;16.80;79.60;;;;;;610316;234;26890;-65
2022/06/09 04:17:40;;;;;;;1.20;1.20;;;16.90;79.50;;;;;;608667;236;26678;-65
2022/06/09 04:20:08;;;;;;;1.58;1.20;;;16.90;79.50;;;;;;601821;239;26812;-65
2022/06/09 04:22:36;;;;;;;1.40;1.30;;;16.90;79.40;;;;;;601753;237;26602;-66
2022/06/09 04:25:04;;;;;;;2.58;1.40;;;16.90;79.30;;;;;;601804;238;27006;-66
2022/06/09 04:27:31;;;;;;;1.35;1.20;;;17.00;79.30;;;;;;602001;236;26588;-65
2022/06/09 04:29:58;;;;;;;1.20;1.20;;;17.00;79.30;;;;;;604918;238;26849;-66
2022/06/09 04:32:26;;;;;;;1.25;1.25;;;17.10;79.20;;;;;;604791;238;26591;-66
2022/06/09 04:34:52;;;;;;;1.77;1.30;;;17.10;79.80;;;;;;604411;238;26836;-66
2022/06/09 04:37:20;;;;;;;1.95;1.35;;;17.10;78.90;;;;;;601539;237;26621;-66
2022/06/09 04:39:47;;;;;;;2.03;1.20;;;17.10;79.00;;;;;;601583;238;27152;-64
2022/06/09 04:42:14;;;;;;;1.37;1.20;;;17.20;79.10;;;;;;603850;235;26637;-65
2022/06/09 04:44:41;;;;;;;1.42;1.20;;;17.20;78.80;;;;;;612439;230;26658;-65
2022/06/09 04:47:09;;;;;;;3.70;1.42;;;17.40;78.70;;;;;;612272;235;26652;-65
2022/06/09 04:49:37;;;;;;;1.60;1.15;;;17.50;78.40;;;;;;612421;234;26638;-65
2022/06/09 04:52:05;;;;;;;1.30;1.30;;;17.60;78.00;;;;;;612348;234;26607;-65
2022/06/09 04:54:33;;;;;;;1.10;1.10;;;17.70;78.50;;;;;;612406;234;26644;-65
2022/06/09 04:57:00;;;;;;;1.20;1.10;;;17.70;77.80;;;;;;608981;235;26588;-65
2022/06/09 04:59:28;;;;;;;1.08;1.00;;;17.90;77.00;;;;;;606372;235;26671;-65
2022/06/09 05:01:55;;;;;;;1.10;1.00;;;18.00;76.50;;;;;;602221;237;26832;-65
2022/06/09 05:04:22;;;;;;;1.37;1.27;;;18.20;76.20;;;;;;601442;237;26637;-65
2022/06/09 05:06:50;;;;;;;1.27;1.17;;;18.50;74.90;;;;;;607714;236;26919;-65
2022/06/09 05:09:17;;;;;;;2.28;1.10;;;18.40;74.80;;;;;;605493;235;26862;-65
2022/06/09 05:11:44;;;;;;;1.02;1.02;;;18.70;73.90;;;;;;605027;235;26621;-65
2022/06/09 05:14:13;;;;;;;1.30;1.20;;;18.90;72.80;;;;;;603510;235;26809;-66
2022/06/09 05:16:39;;;;;;;2.37;1.50;;;19.00;72.50;;;;;;608192;235;26637;-68
2022/06/09 05:19:06;;;;;;;3.87;1.58;;;19.10;71.80;;;;;;610422;235;27116;-67
2022/06/09 05:21:34;;;;;;;3.75;1.65;;;19.40;71.20;;;;;;605511;235;26633;-60
2022/06/09 05:24:02;;;;;;;1.27;1.25;;;19.40;70.70;;;;;;603702;237;26633;-62
2022/06/09 05:26:30;;;;;;;1.27;1.17;;;19.60;70.30;;;;;;605090;237;26659;-62
2022/06/09 05:28:58;;;;;;;2.00;1.50;;;19.50;69.90;;;;;;609562;236;26644;-62
2022/06/09 05:31:26;;;;;;;1.80;1.48;;;19.50;69.90;;;;;;602764;236;26819;-62
2022/06/09 05:33:53;;;;;;;1.58;1.48;;;19.50;69.80;;;;;;604730;235;26578;-62
2022/06/09 05:36:19;;;;;;;1.20;1.15;;;19.40;69.90;;;;;;608873;236;26882;-62
2022/06/09 05:46:25;;;;;;;1.42;1.27;;;19.40;69.90;;;;;;601609;237;26666;-62
2022/06/09 05:48:53;;;;;;;2.22;1.37;;;19.40;69.10;;;;;;601533;237;27355;-63
2022/06/09 05:51:20;;;;;;;1.35;1.35;;;19.30;69.70;;;;;;601452;239;26633;-62
2022/06/09 05:53:48;;;;;;;1.45;1.23;;;19.40;68.80;;;;;;601694;237;26894;-62
2022/06/09 05:56:16;;;;;;;1.40;1.30;;;19.30;68.90;;;;;;604091;235;26900;-71
2022/06/09 05:58:42;;;;;;;1.10;1.10;;;19.40;69.30;;;;;;605584;235;26636;-71
2022/06/09 06:01:09;;;;;;;99.43;17.55;;;19.30;69.30;;;;;;604566;235;27229;-71
2022/06/09 06:03:36;;;;;;;124.97;24.02;;;19.40;69.30;;;;;;607602;236;26572;-71
2022/06/09 06:08:39;;;;;;;66.32;13.98;;;19.40;69.70;;;;;;612387;234;26906;-73
2022/06/09 06:11:06;;;;;;;90.35;15.73;;;19.20;69.00;;;;;;612354;234;26629;-72
2022/06/09 06:13:33;;;;;;;76.65;15.15;;;19.20;69.80;;;;;;612393;235;27304;-72
2022/06/09 06:16:00;;;;;;;71.93;14.15;;;19.40;68.90;;;;;;612417;234;26669;-72
2022/06/09 06:18:28;;;;;;;62.62;11.88;;;19.40;68.80;;;;;;610722;235;26968;-71
2022/06/09 06:20:55;;;;;;;57.03;11.18;;;19.30;68.60;;;;;;602588;237;26553;-70
2022/06/09 06:23:22;;;;;;;31.08;6.10;;;19.40;68.40;;;;;;602756;236;26851;-71
2022/06/09 06:25:49;;;;;;;24.42;6.43;;;19.40;69.10;;;;;;602490;237;26623;-70
2022/06/09 06:28:16;;;;;;;20.37;5.37;;;19.30;68.80;;;;;;602358;237;27211;-71
2022/06/09 06:30:43;;;;;;;19.27;5.50;;;19.40;69.40;;;;;;602167;232;26636;-71
2022/06/09 06:33:10;;;;;;;17.95;4.80;;;19.60;69.00;;;;;;601995;238;26824;-71
2022/06/09 06:35:38;;;;;;;18.02;5.70;;;19.70;68.60;;;;;;608933;235;26665;-73
2022/06/09 06:38:05;;;;;;;18.27;4.95;;;19.70;69.00;;;;;;605238;236;26585;-72
2022/06/09 06:40:32;;;;;;;14.65;4.53;;;19.90;68.80;;;;;;604745;236;26987;-72
2022/06/09 06:42:59;;;;;;;8.93;3.40;;;19.90;68.40;;;;;;603117;235;26558;-72
2022/06/09 06:45:27;;;;;;;10.23;2.92;;;20.00;68.10;;;;;;604891;233;26847;-72
2022/06/09 06:47:54;;;;;;;6.95;2.75;;;20.20;67.80;;;;;;607358;236;26567;-72
2022/06/09 06:50:22;;;;;;;10.45;2.80;;;20.60;67.00;;;;;;610143;235;26950;-72
2022/06/09 06:52:49;;;;;;;3.58;1.60;;;20.60;67.00;;;;;;609960;235;27280;-72
2022/06/09 06:55:16;;;;;;;4.85;1.50;;;20.40;67.70;;;;;;607612;234;26673;-72
2022/06/09 06:57:43;;;;;;;4.62;1.65;;;20.50;67.10;;;;;;604361;235;26839;-72
2022/06/09 07:00:11;;;;;;;6.68;2.10;;;20.50;67.20;;;;;;601529;238;26635;-72
2022/06/09 07:02:39;;;;;;;4.25;1.50;;;20.40;66.90;;;;;;603304;235;26661;-72
2022/06/09 07:05:08;;;;;;;4.82;1.83;;;20.50;66.80;;;;;;601719;238;26669;-72
2022/06/09 07:07:35;;;;;;;2.95;1.70;;;21.00;66.40;;;;;;604629;236;26562;-72
2022/06/09 07:10:03;;;;;;;4.25;1.62;;;21.30;64.90;;;;;;601856;239;26622;-72
2022/06/09 07:12:29;;;;;;;2.72;1.50;;;21.20;64.30;;;;;;601844;239;26826;-72
2022/06/09 07:14:56;;;;;;;3.80;1.45;;;21.10;64.60;;;;;;602782;234;26652;-72
2022/06/09 07:17:24;;;;;;;5.65;1.50;;;21.20;64.80;;;;;;607681;236;26820;-72
2022/06/09 07:19:52;;;;;;;4.60;1.62;;;20.70;65.10;;;;;;607314;236;26578;-72
2022/06/09 07:22:20;;;;;;;4.90;1.42;;;20.30;66.40;;;;;;604301;236;26594;-72
2022/06/09 07:24:48;;;;;;;2.20;1.50;;;20.00;66.90;;;;;;605861;234;26673;-72
2022/06/09 07:27:16;;;;;;;4.20;1.67;;;19.80;67.80;;;;;;603175;235;26891;-72
2022/06/09 07:29:43;;;;;;;4.62;1.70;;;19.80;67.80;;;;;;603554;238;26603;-69
2022/06/09 07:32:10;;;;;;;2.33;1.35;;;19.50;69.10;;;;;;604890;235;26598;-70
2022/06/09 07:34:37;;;;;;;4.35;1.70;;;19.40;70.10;;;;;;608079;235;26959;-70
2022/06/09 07:37:04;;;;;;;1.58;1.17;;;19.20;70.60;;;;;;604106;236;26595;-70
2022/06/09 07:39:33;;;;;;;1.90;1.40;;;19.30;70.90;;;;;;604814;237;26595;-71
2022/06/09 07:41:59;;;;;;;2.87;1.40;;;19.30;71.10;;;;;;602487;237;26988;-71
2022/06/09 07:44:26;;;;;;;1.90;1.35;;;19.40;71.10;;;;;;606177;236;26654;-71
2022/06/09 07:46:54;;;;;;;3.00;1.45;;;19.40;71.40;;;;;;608306;236;26852;-71
2022/06/09 07:49:21;;;;;;;1.00;1.00;;;19.20;71.50;;;;;;605065;238;26621;-71
2022/06/09 07:51:49;;;;;;;4.72;1.40;;;18.90;73.10;;;;;;604437;237;26961;-70
2022/06/09 07:54:17;;;;;;;2.97;1.48;;;18.90;73.40;;;;;;610182;235;26867;-71
2022/06/09 07:56:44;;;;;;;2.83;1.20;;;18.90;73.80;;;;;;610801;235;26788;-71
2022/06/09 07:59:12;;;;;;;5.22;1.40;;;19.00;74.20;;;;;;606504;235;26583;-71
2022/06/09 08:01:40;;;;;;;1.48;1.10;;;19.00;74.20;;;;;;607175;235;26903;-72
2022/06/09 08:04:08;;;;;;;1.30;1.20;;;18.80;75.10;;;;;;605105;234;26629;-70
2022/06/09 08:06:36;;;;;;;4.70;1.30;;;18.80;74.50;;;;;;608294;236;26853;-72
2022/06/09 08:09:03;;;;;;;1.50;1.08;;;18.80;74.50;;;;;;602900;236;26865;-71
2022/06/09 08:11:30;;;;;;;2.30;1.23;;;18.80;75.00;;;;;;603074;237;26593;-72
2022/06/09 08:13:58;;;;;;;2.22;1.60;;;18.80;75.10;;;;;;602271;236;26608;-72
2022/06/09 08:16:24;;;;;;;2.95;1.17;;;18.80;75.50;;;;;;606590;236;26650;-71
2022/06/09 08:18:52;;;;;;;3.70;1.37;;;18.70;75.50;;;;;;607098;236;26889;-71
2022/06/09 08:21:20;;;;;;;2.47;1.33;;;18.70;76.30;;;;;;602724;237;26605;-72
2022/06/09 08:23:48;;;;;;;0.93;0.93;;;18.80;76.10;;;;;;609528;235;26651;-71
2022/06/09 08:26:16;;;;;;;2.58;1.12;;;18.50;76.70;;;;;;601899;236;26616;-73
2022/06/09 08:28:44;;;;;;;2.00;1.15;;;18.40;77.00;;;;;;602470;237;26622;-73
2022/06/09 08:31:12;;;;;;;2.42;1.20;;;18.40;77.00;;;;;;603002;237;26588;-71
2022/06/09 08:33:39;;;;;;;1.12;1.08;;;18.50;77.10;;;;;;605233;236;26587;-71
2022/06/09 08:36:07;;;;;;;1.75;1.30;;;18.40;77.10;;;;;;602523;235;26888;-72
2022/06/09 08:38:34;;;;;;;2.08;1.42;;;18.40;77.70;;;;;;604590;237;26596;-72
2022/06/09 08:41:18;;;;;;;1.83;1.40;;;18.20;77.30;;;;;;590650;242;26889;-72
2022/06/09 08:43:47;;;;;;;2.15;1.10;;;18.30;77.80;;;;;;592593;238;26691;-72
2022/06/09 08:46:16;;;;;;;2.20;1.40;;;18.40;77.90;;;;;;594481;242;26609;-72
2022/06/09 08:48:44;;;;;;;1.58;1.27;;;18.50;78.30;;;;;;593914;238;26650;-72
2022/06/09 08:51:12;;;;;;;3.10;1.48;;;18.40;79.40;;;;;;585356;243;26658;-71
2022/06/09 08:53:39;;;;;;;2.50;1.40;;;18.50;80.50;;;;;;597483;239;26857;-71
2022/06/09 08:56:21;;;;;;;2.47;1.50;;;18.40;80.80;;;;;;605649;235;26621;-71
2022/06/09 08:58:46;;;;;;;1.67;1.10;;;18.40;80.70;;;;;;605228;234;26601;-72
2022/06/09 09:01:22;;;;;;;5.25;1.40;;;18.40;82.10;;;;;;603621;235;26652;-72
2022/06/09 09:03:49;;;;;;;3.22;1.50;;;18.40;82.00;;;;;;607875;235;26677;-72
2022/06/09 09:06:34;;;;;;;6.47;1.60;;;18.50;84.10;;;;;;601605;238;26855;-72
2022/06/09 09:09:02;;;;;;;4.18;2.45;;;18.40;86.30;;;;;;602335;235;26607;-72
2022/06/09 09:11:41;;;;;;;7.37;3.03;;;18.40;86.20;;;;;;609011;236;27293;-72
2022/06/09 09:14:14;;;;;;;7.37;3.03;;;18.40;87.60;;;;;;602579;235;26617;-71
2022/06/09 09:16:45;;;;;;;6.85;3.30;;;18.20;87.20;;;;;;609560;232;26641;-72
2022/06/09 09:19:13;;;;;;;3.25;2.75;;;18.30;85.50;;;;;;601991;238;26582;-71
2022/06/09 09:21:45;;;;;;;13.68;3.75;;;18.70;85.60;;;;;;603808;238;26578;-71
2022/06/09 09:24:17;;;;;;;15.70;3.97;;;18.90;84.20;;;;;;607061;235;26982;-73
2022/06/09 09:26:44;;;;;;;10.57;3.95;;;19.10;84.30;;;;;;604525;235;26643;-71
2022/06/09 09:29:16;;;;;;;11.43;3.78;;;19.40;85.30;;;;;;608986;235;26590;-71
2022/06/09 09:31:53;;;;;;;11.73;3.78;;;19.30;85.30;;;;;;605452;236;26861;-71
2022/06/09 09:34:21;;;;;;;12.02;3.55;;;19.40;83.70;;;;;;604928;233;26638;-75
2022/06/09 09:36:48;;;;;;;5.20;2.60;;;19.40;81.30;;;;;;603470;235;26816;-75
2022/06/09 09:39:17;;;;;;;6.72;3.50;;;19.30;83.20;;;;;;604447;235;26646;-73
2022/06/09 09:41:45;;;;;;;5.95;3.03;;;19.40;81.10;;;;;;606294;235;26623;-75
2022/06/09 09:44:15;;;;;;;7.62;3.15;;;19.40;80.50;;;;;;604793;235;26840;-74
2022/06/09 09:46:42;;;;;;;9.95;3.17;;;19.40;80.50;;;;;;605945;235;26644;-76
2022/06/09 09:49:15;;;;;;;6.32;2.50;;;19.70;79.20;;;;;;606148;235;26888;-73
2022/06/09 09:51:38;;;;;;;8.38;2.78;;;19.60;78.80;;;;;;605450;235;26632;-72
2022/06/09 09:54:09;;;;;;;4.53;2.35;;;19.70;78.30;;;;;;604470;235;26860;-74
2022/06/09 09:56:37;;;;;;;4.43;2.42;;;19.70;78.50;;;;;;604373;235;26794;-74
2022/06/09 09:59:05;;;;;;;6.93;2.40;;;19.60;79.30;;;;;;603585;235;26590;-69
2022/06/09 10:01:34;;;;;;;5.05;2.67;;;19.80;78.80;;;;;;608328;234;26605;-70
2022/06/09 10:09:29;;;;;;;6.07;2.28;;;19.60;78.00;;;;;;604893;235;26999;-71
2022/06/09 10:11:58;;;;;;;5.97;2.35;;;19.60;77.80;;;;;;603769;237;26622;-75
2022/06/09 10:14:28;;;;;;;3.45;2.35;;;19.80;77.60;;;;;;603862;235;26789;-71
2022/06/09 10:16:55;;;;;;;6.90;2.30;;;20.10;77.60;;;;;;609321;233;26634;-74
2022/06/09 10:19:22;;;;;;;7.93;2.45;;;20.40;75.80;;;;;;604790;235;26565;-71
2022/06/09 10:21:51;;;;;;;5.60;2.00;;;20.50;74.90;;;;;;602129;237;26898;-73
2022/06/09 10:24:18;;;;;;;8.23;2.55;;;20.90;74.70;;;;;;603608;237;26598;-74
2022/06/09 10:26:46;;;;;;;2.87;1.85;;;20.90;73.20;;;;;;604692;238;26842;-74
2022/06/09 10:29:16;;;;;;;2.58;1.95;;;21.20;72.40;;;;;;608771;235;26628;-74
2022/06/09 10:31:44;;;;;;;3.40;2.22;;;21.20;71.30;;;;;;609714;236;26644;-74
2022/06/09 10:34:22;;;;;;;3.37;2.00;;;21.60;69.80;;;;;;604740;236;26868;-77
2022/06/09 10:36:54;;;;;;;4.72;2.33;;;21.60;69.40;;;;;;604601;235;26914;-73
2022/06/09 10:39:40;;;;;;;4.75;2.30;;;21.60;69.60;;;;;;608055;234;26639;-74
2022/06/09 10:42:11;;;;;;;3.05;2.00;;;21.40;69.20;;;;;;609182;235;26624;-74
2022/06/09 10:44:38;;;;;;;2.35;2.00;;;21.40;69.20;;;;;;602895;236;26919;-74
2022/06/09 10:55:15;;;;;;;3.55;2.05;;;20.90;68.70;;;;;;601808;236;26670;-71
2022/06/09 10:58:01;;;;;;;2.10;1.95;;;21.10;67.70;;;;;;604227;236;26627;-73
2022/06/09 11:00:29;;;;;;;2.08;1.90;;;21.10;67.70;;;;;;597960;239;27019;-72
2022/06/09 11:02:57;;;;;;;2.00;1.83;;;20.70;67.60;;;;;;608067;236;26634;-75
2022/06/09 11:05:48;;;;;;;1.75;1.65;;;20.70;67.60;;;;;;603673;233;26846;-73
2022/06/09 11:08:27;;;;;;;2.62;2.20;;;20.60;68.50;;;;;;599387;237;26888;-73
2022/06/09 11:11:01;;;;;;;2.22;1.90;;;20.90;67.70;;;;;;604723;232;26635;-72
2022/06/09 11:13:34;;;;;;;3.75;1.92;;;20.90;67.40;;;;;;604184;235;26583;-75
2022/06/09 11:16:03;;;;;;;2.50;1.60;;;20.70;68.20;;;;;;608283;234;26835;-74
2022/06/09 11:18:46;;;;;;;2.08;1.60;;;20.90;68.40;;;;;;602030;238;26787;-75
2022/06/09 11:21:24;;;;;;;1.80;1.70;;;20.90;68.00;;;;;;602748;237;26657;-70
2022/06/09 11:23:57;;;;;;;2.08;1.27;;;20.80;68.40;;;;;;605143;237;26672;-71
2022/06/09 11:26:35;;;;;;;2.05;1.60;;;20.70;67.90;;;;;;609256;235;26654;-72
2022/06/09 11:29:40;;;;;;;3.90;1.75;;;20.60;67.80;;;;;;602853;234;26602;-72
2022/06/09 11:32:12;;;;;;;2.67;1.90;;;20.70;67.80;;;;;;595312;237;26650;-73
2022/06/09 11:34:41;;;;;;;2.10;1.80;;;20.40;68.90;;;;;;604959;237;26613;-73
2022/06/09 11:37:16;;;;;;;2.05;1.70;;;20.30;69.20;;;;;;602203;236;26569;-73
2022/06/09 11:40:01;;;;;;;2.00;1.80;;;20.30;69.20;;;;;;604319;236;26586;-73
2022/06/09 11:42:36;;;;;;;2.17;1.90;;;20.20;70.00;;;;;;603104;237;26841;-73
2022/06/09 11:45:02;;;;;;;3.62;1.90;;;20.20;70.40;;;;;;608872;236;26853;-76
2022/06/09 11:47:29;;;;;;;1.83;1.58;;;20.30;69.90;;;;;;603586;235;26947;-72
2022/06/09 11:49:57;;;;;;;1.70;1.60;;;20.40;69.60;;;;;;602495;238;26557;-74
2022/06/09 11:52:28;;;;;;;1.70;1.30;;;20.50;69.60;;;;;;602181;235;27640;-78
2022/06/09 11:54:57;;;;;;;3.53;2.08;;;20.50;69.50;;;;;;603375;234;26615;-67
2022/06/09 11:57:47;;;;;;;5.18;1.90;;;20.60;69.50;;;;;;603907;235;26654;-68
2022/06/09 12:00:35;;;;;;;2.42;1.58;;;20.60;68.30;;;;;;603682;235;26631;-74
2022/06/09 12:03:08;;;;;;;3.03;1.58;;;20.60;67.60;;;;;;608683;235;26605;-74
2022/06/09 12:05:37;;;;;;;5.00;3.53;;;20.70;67.70;;;;;;601768;238;26648;-75
2022/06/09 12:08:06;;;;;;;8.43;5.47;;;20.70;67.60;;;;;;606393;235;26858;-74
2022/06/09 12:10:35;;;;;;;8.55;6.57;;;20.70;67.80;;;;;;602451;238;26639;-73
2022/06/09 12:13:02;;;;;;;11.63;8.43;;;20.80;67.60;;;;;;604864;235;26872;-73
2022/06/09 12:15:29;;;;;;;12.65;9.60;;;20.80;67.30;;;;;;605289;236;26657;-72
2022/06/09 12:18:05;;;;;;;11.95;9.05;;;21.00;66.90;;;;;;605207;234;26594;-71
2022/06/09 12:21:01;;;;;;;9.23;6.93;;;21.10;66.40;;;;;;606161;234;26663;-71
2022/06/09 12:23:33;;;;;;;7.07;5.95;;;21.30;66.50;;;;;;598794;237;26601;-71
2022/06/09 12:26:19;;;;;;;7.15;5.05;;;21.30;66.50;;;;;;607365;234;26868;-72
2022/06/09 12:28:59;;;;;;;9.55;6.07;;;21.40;66.60;;;;;;607226;234;26568;-71
2022/06/09 12:31:30;;;;;;;8.15;5.50;;;21.60;65.20;;;;;;608068;234;26583;-74
2022/06/09 12:34:00;;;;;;;8.93;6.22;;;21.50;65.10;;;;;;603313;238;26859;-74
2022/06/09 12:36:30;;;;;;;3.08;2.78;;;21.50;65.40;;;;;;606308;236;27253;-73
2022/06/09 12:38:58;;;;;;;5.40;4.90;;;21.80;65.00;;;;;;605464;236;26554;-75
2022/06/09 12:41:29;;;;;;;6.25;5.32;;;22.00;64.40;;;;;;603798;236;26585;-73
2022/06/09 12:44:18;;;;;;;7.43;5.68;;;22.40;65.10;;;;;;607901;235;26668;-71
2022/06/09 12:46:46;;;;;;;5.78;5.05;;;22.10;63.00;;;;;;605955;235;26654;-72
2022/06/09 12:49:15;;;;;;;5.87;4.90;;;21.80;63.70;;;;;;608485;235;26633;-73
2022/06/09 12:51:42;;;;;;;6.40;4.82;;;21.80;63.70;;;;;;604831;238;26554;-70
2022/06/09 12:54:30;;;;;;;3.70;3.00;;;21.80;64.40;;;;;;604400;236;26829;-72
2022/06/09 12:56:58;;;;;;;10.25;4.70;;;21.60;63.90;;;;;;601817;236;26862;-73
2022/06/09 12:59:26;;;;;;;122.78;25.25;;;21.30;65.30;;;;;;604165;235;26881;-71
2022/06/09 13:01:56;;;;;;;114.37;27.73;;;21.00;65.90;;;;;;607945;235;26646;-67
2022/06/09 13:04:24;;;;;;;287.63;38.20;;;20.90;67.30;;;;;;608965;234;26589;-66
2022/06/09 13:06:51;;;;;;;59.40;25.23;;;20.50;70.80;;;;;;602969;235;26634;-66
2022/06/09 13:09:21;;;;;;;89.03;25.35;;;20.50;74.40;;;;;;601994;237;26621;-65
2022/06/09 13:14:24;;;;;;;71.03;24.50;;;20.40;75.50;;;;;;603940;234;26836;-66
2022/06/09 13:16:51;;;;;;;85.03;25.90;;;20.40;73.30;;;;;;602258;233;26607;-66
2022/06/09 13:19:18;;;;;;;70.78;24.02;;;20.30;73.70;;;;;;603534;236;26879;-67
2022/06/09 13:21:46;;;;;;;71.90;23.62;;;20.50;74.30;;;;;;604130;235;26669;-66